Hauptseite
METAR-TAF:

METAR-TAF

Flughäfen :

Bristol Airport

Bristol, England

Breite: 51-23N, Länge: 002-43W, Höhe: 189 m

Beobachtung

Neuester Wetterbericht von vor 35 Minuten, um 18:50 UTC
Wind 8 kt aus Süd
Temperatur 20°C
Luftfeuchtigkeit 83%
Luftdruck 1018 hPa
Sichtweite 10 km oder mehr
Geschlossene Wolkendecke in der Höhe von 2000 ft

METAR: EGGD 061850Z AUTO 17008KT 9999 OVC020 20/17 Q1018

Zeit: 20:25 (19:25 UTC)

Prognose

Neuester Wetterbericht von vor 2 Stunden und 24 Minuten, um 17:01 UTC
Gültige Prognose vom 06 um 18 UTC bis 07 um 18 UTC
Wind 8 kt aus Süd
Sichtweite 10 km oder mehr
Aufgelockert bewölkt in der Höhe von 2000 ft
Zeitweise
vom 06 um 20 UTC bis 07 um 09 UTC
Sichtweite: 7000 m
Wahrscheinlichkeit 40%
vom 07 um 00 UTC bis 07 um 07 UTC
Sichtweite: 3000 m
feuchter Dunst

TAF: EGGD 061701Z 0618/0718 18008KT 9999 SCT020 TEMPO 0620/0709 7000 PROB40 0700/0707 3000 BR

Wetterbeobachtungen und Prognosen von mehr als 4000 Flughäfen (METAR und TAF Bericht).

Die verfügbaren Stationen werden durch gelbe und rote Markierungen auf der Karte dargestellt.

Führen Sie die Maus auf sie, um den Namen der Station zu sehen.

Darauf klicken, um die Beobachtung von Wetterbeobachtungen und Prognosen zu sehen.

Um die Karte zu ändern : klicken Sie auf den grünen Tasten mit einem schwarzen Kreuz Zum Vergrößern, auf den grünen Button mit einem Gedankenstrich zu verkleinern, oder auf die grünen Pfeile für benachbarte Karten.


METAR-TAF: